Pas de vigilance météorologique particulière.    Il n'y a aucun avertissement


Thunder radar more information blitzortung!


Rain radar more information rain snow radar


Visitez nos sites météorologiques autres:

Template documentation
and downloads

And another site



Rapports METAR proximité

   
EBAW - Antwerp
Mise à jour: 17-10-2018 07:20
Brouillard, Partiellement nuageux  
Brouillard, Partiellement nuageux  
   Vent: Ouest 3.7 km/h
Vent: Ouest 3.7 km/h
Température: 12°C
Point de rosée: 11°C
Humidité: 94%
Baromètre: 1019 hPa
Nuageux: Partiellement nuageux
visibilité: 3 km
Détails des nuages: Partiellement nuageux
EBAW 170520Z 26002KT 2500 BR NSC 12/11 Q1019 BECMG 5000
EBLG - Liège
Mise à jour: 17-10-2018 07:20
Claires  
Claires  
   Vent: Sud 5.6 km/h
Vent: Sud 5.6 km/h
Température: 13°C
Point de rosée: 9°C
Humidité: 77%
Baromètre: 1019 hPa
visibilité: More than 10 km
Détails des nuages: Claires
EBLG 170520Z 17003KT CAVOK 13/09 Q1019 NOSIG
EBCV - Mons/Bergen
Mise à jour: 17-10-2018 07:08
Brouillard, Claires  
Brouillard, Claires  
   Vent: varie 1.9 km/h
Vent: varie 1.9 km/h
Température: 9°C
Point de rosée: 8°C
Humidité: 94%
Baromètre: 1019 hPa
Nuageux: Claires
visibilité: 1 km
Détails des nuages: Claires
EBCV 170508Z AUTO VRB01KT 1400 BR NCD 09/08 Q1019 AMB
EHBK - Maastricht
Mise à jour: 17-10-2018 07:25
Partiellement nuageux  
Partiellement nuageux  
   Vent: SSO 11.1 km/h
Vent: SSO 11.1 km/h
Température: 11°C
Point de rosée: 9°C
Humidité: 88%
Baromètre: 1018 hPa
Nuageux: Partiellement nuageux
visibilité: More than 10 km
Détails des nuages: Partiellement nuageux
EHBK 170525Z AUTO 21006KT 9999 NSC 11/09 Q1018 NOSIG
ELLX - Luxemburg
Mise à jour: 17-10-2018 07:20
Claires  
Claires  
   Vent: NE 13 km/h
Vent: NE 13 km/h
Température: 13°C
Point de rosée: 8°C
Humidité: 72%
Baromètre: 1019 hPa
visibilité: More than 10 km
Détails des nuages: Claires
ELLX 170520Z 04007KT CAVOK 13/08 Q1019 NOSIG
EBOS - Oostende
Mise à jour: 17-10-2018 07:20
Brouillard, Partiellement nuageux  
Brouillard, Partiellement nuageux  
   Vent: SSO 5.6 km/h
Vent: SSO 5.6 km/h
Température: 10°C
éolien: 9°C
Point de rosée: 9°C
Humidité: 94%
Baromètre: 1019 hPa
Nuageux: Partiellement nuageux
visibilité: 3 km
Détails des nuages: Peu de nuages 900 ft,
Partiellement nuageux 3600 ft
EBOS 170520Z 20003KT 2500 BR FEW009 SCT036 10/09 Q1019 TEMPO 1200 BR BKN009

Script développé par  Saratoga-weather.org Adapté pour le modèle par  Weerstation Leuven

Vous trouverez notre info météo Également à:

Weather Underground

Équipement que nous utilisons:

Station de Météo
Davis VP2

Programme Météo
Meteohub

Ordinateur Météo
RaspberryPI 2

Provider
OVH

Davis VP2

Meteohub

RaspberryPI 2

OVH